Map

Track Data

SID SEASON NUMBER BASIN SUBBASIN NAME ISO_TIME NATURE LAT LON WMO_WIND WMO_PRES WMO_AGENCY TRACK_TYPE DIST2LAND LANDFALL IFLAG USA_AGENCY USA_ATCF_ID USA_LAT USA_LON USA_RECORD USA_STATUS USA_WIND USA_PRES USA_SSHS USA_R34_NE USA_R34_SE USA_R34_SW USA_R34_NW USA_R50_NE USA_R50_SE USA_R50_SW USA_R50_NW USA_R64_NE USA_R64_SE USA_R64_SW USA_R64_NW USA_POCI USA_ROCI USA_RMW USA_EYE TOKYO_LAT TOKYO_LON TOKYO_GRADE TOKYO_WIND TOKYO_PRES TOKYO_R50_DIR TOKYO_R50_LONG TOKYO_R50_SHORT TOKYO_R30_DIR TOKYO_R30_LONG TOKYO_R30_SHORT TOKYO_LAND CMA_LAT CMA_LON CMA_CAT CMA_WIND CMA_PRES HKO_LAT HKO_LON HKO_CAT HKO_WIND HKO_PRES NEWDELHI_LAT NEWDELHI_LON NEWDELHI_GRADE NEWDELHI_WIND NEWDELHI_PRES NEWDELHI_CI NEWDELHI_DP NEWDELHI_POCI REUNION_LAT REUNION_LON REUNION_TYPE REUNION_WIND REUNION_PRES REUNION_TNUM REUNION_CI REUNION_RMW REUNION_R34_NE REUNION_R34_SE REUNION_R34_SW REUNION_R34_NW REUNION_R50_NE REUNION_R50_SE REUNION_R50_SW REUNION_R50_NW REUNION_R64_NE REUNION_R64_SE REUNION_R64_SW REUNION_R64_NW BOM_LAT BOM_LON BOM_TYPE BOM_WIND BOM_PRES BOM_TNUM BOM_CI BOM_RMW BOM_R34_NE BOM_R34_SE BOM_R34_SW BOM_R34_NW BOM_R50_NE BOM_R50_SE BOM_R50_SW BOM_R50_NW BOM_R64_NE BOM_R64_SE BOM_R64_SW BOM_R64_NW BOM_ROCI BOM_POCI BOM_EYE BOM_POS_METHOD BOM_PRES_METHOD NADI_LAT NADI_LON NADI_CAT NADI_WIND NADI_PRES WELLINGTON_LAT WELLINGTON_LON WELLINGTON_WIND WELLINGTON_PRES DS824_LAT DS824_LON DS824_STAGE DS824_WIND DS824_PRES TD9636_LAT TD9636_LON TD9636_STAGE TD9636_WIND TD9636_PRES TD9635_LAT TD9635_LON TD9635_WIND TD9635_PRES TD9635_ROCI NEUMANN_LAT NEUMANN_LON NEUMANN_CLASS NEUMANN_WIND NEUMANN_PRES MLC_LAT MLC_LON MLC_CLASS MLC_WIND MLC_PRES USA_GUST BOM_GUST BOM_GUST_PER REUNION_GUST REUNION_GUST_PER USA_SEAHGT USA_SEARAD_NE USA_SEARAD_SE USA_SEARAD_SW USA_SEARAD_NW STORM_SPEED STORM_DIR
1931219N17131 1931 24 WP MM NOT_NAMED 1931-08-07 10:00:00 NR 17.2000 130.600 main 760 725 __________O___ -1 17.2000 130.600 7 15 296
1931219N17131 1931 24 WP MM NOT_NAMED 1931-08-07 12:00:00 NR 17.4136 130.146 main 725 691 __________P___ -1 17.4136 130.146 7 14 296
1931219N17131 1931 24 WP MM NOT_NAMED 1931-08-07 15:00:00 NR 17.7279 129.478 main 691 657 __________P___ -1 17.7279 129.478 7 14 296
1931219N17131 1931 24 WP MM NOT_NAMED 1931-08-07 18:00:00 NR 18.0291 128.846 main 657 631 __________P___ -1 18.0291 128.846 7 13 297
1931219N17131 1931 24 WP MM NOT_NAMED 1931-08-07 21:00:00 NR 18.3112 128.274 main 631 612 __________P___ -1 18.3112 128.274 7 12 298
1931219N17131 1931 24 WP MM NOT_NAMED 1931-08-07 22:00:00 NR 18.4000 128.100 main 612 580 __________O___ -1 18.4000 128.100 7 11 299
1931219N17131 1931 24 WP MM NOT_NAMED 1931-08-08 00:00:00 NR 18.5690 127.782 main 580 539 __________P___ -1 18.5690 127.782 7 10 300
1931219N17131 1931 24 WP MM NOT_NAMED 1931-08-08 03:00:00 NR 18.8044 127.368 main 539 499 __________P___ -1 18.8044 127.368 7 9 302
1931219N17131 1931 24 WP MM NOT_NAMED 1931-08-08 06:00:00 NR 19.0233 127.013 main 499 471 __________P___ -1 19.0233 127.013 7 8 304
1931219N17131 1931 24 WP MM NOT_NAMED 1931-08-08 09:00:00 NR 19.2318 126.699 main 471 463 __________P___ -1 19.2318 126.699 7 7 305
1931219N17131 1931 24 WP MM NOT_NAMED 1931-08-08 10:00:00 NR 19.3000 126.600 main 463 445 __________O___ -1 19.3000 126.600 7 7 303
1931219N17131 1931 24 WP MM NOT_NAMED 1931-08-08 12:00:00 NR 19.4258 126.380 main 445 421 __________P___ -1 19.4258 126.380 7 7 302
1931219N17131 1931 24 WP MM NOT_NAMED 1931-08-08 15:00:00 NR 19.6080 126.076 main 421 399 __________P___ -1 19.6080 126.076 7 7 305
1931219N17131 1931 24 WP MM NOT_NAMED 1931-08-08 18:00:00 NR 19.7991 125.805 main 399 385 __________P___ -1 19.7991 125.805 7 6 311
1931219N17131 1931 24 WP MM NOT_NAMED 1931-08-08 21:00:00 NR 20.0178 125.570 main 390 380 __________P___ -1 20.0178 125.570 7 6 316
1931219N17131 1931 24 WP MM NOT_NAMED 1931-08-08 22:00:00 NR 20.1000 125.500 main 386 379 __________O___ -1 20.1000 125.500 7 7 320
1931219N17131 1931 24 WP MM NOT_NAMED 1931-08-09 00:00:00 NR 20.2880 125.330 main 379 375 __________P___ -1 20.2880 125.330 7 8 324
1931219N17131 1931 24 WP MM NOT_NAMED 1931-08-09 03:00:00 NR 20.6016 125.105 main 382 382 __________P___ -1 20.6016 125.105 7 7 331
1931219N17131 1931 24 WP MM NOT_NAMED 1931-08-09 06:00:00 NR 20.9392 124.948 main 390 398 __________P___ -1 20.9392 124.948 7 7 343
1931219N17131 1931 24 WP MM NOT_NAMED 1931-08-09 09:00:00 NR 21.2854 124.891 main 412 407 __________P___ -1 21.2854 124.891 7 7 354
1931219N17131 1931 24 WP MM NOT_NAMED 1931-08-09 10:00:00 NR 21.4000 124.900 main 407 401 __________O___ -1 21.4000 124.900 7 7 25
1931219N17131 1931 24 WP MM NOT_NAMED 1931-08-09 12:00:00 NR 21.5934 125.047 main 406 411 __________P___ -1 21.5934 125.047 7 8 42
1931219N17131 1931 24 WP MM NOT_NAMED 1931-08-09 15:00:00 NR 21.8827 125.370 main 432 432 __________P___ -1 21.8827 125.370 7 9 45
1931219N17131 1931 24 WP MM NOT_NAMED 1931-08-09 18:00:00 NR 22.1958 125.696 main 452 449 __________P___ -1 22.1958 125.696 7 8 35
1931219N17131 1931 24 WP MM NOT_NAMED 1931-08-09 21:00:00 NR 22.5614 125.889 main 459 454 __________P___ -1 22.5614 125.889 7 8 20
1931219N17131 1931 24 WP MM NOT_NAMED 1931-08-09 22:00:00 NR 22.7000 125.900 main 454 430 __________O___ -1 22.7000 125.900 3 10 349
1931219N17131 1931 24 WP MM NOT_NAMED 1931-08-10 00:00:00 NR 23.0334 125.785 main 430 369 __________P___ -1 23.0334 125.785 3 12 334
1931219N17131 1931 24 WP MM NOT_NAMED 1931-08-10 03:00:00 NR 23.5910 125.436 main 369 305 __________P___ -1 23.5910 125.436 3 14 325
1931219N17131 1931 24 WP MM NOT_NAMED 1931-08-10 06:00:00 NR 24.1728 124.926 main 305 234 __________P___ -1 24.1728 124.926 3 15 318
1931219N17131 1931 24 WP MM NOT_NAMED 1931-08-10 09:00:00 NR 24.7289 124.315 main 234 211 __________P___ -1 24.7289 124.315 3 16 314
1931219N17131 1931 24 WP MM NOT_NAMED 1931-08-10 10:00:00 NR 24.9000 124.100 main 211 172 __________O___ -1 24.9000 124.100 4 15 312
1931219N17131 1931 24 WP MM NOT_NAMED 1931-08-10 12:00:00 NR 25.2134 123.712 main 172 129 __________P___ -1 25.2134 123.712 4 14 309
1931219N17131 1931 24 WP MM NOT_NAMED 1931-08-10 15:00:00 NR 25.6398 123.073 main 129 112 __________P___ -1 25.6398 123.073 4 14 304
1931219N17131 1931 24 WP MM NOT_NAMED 1931-08-10 18:00:00 NR 26.0085 122.381 main 118 112 __________P___ -1 26.0085 122.381 4 14 298
1931219N17131 1931 24 WP MM NOT_NAMED 1931-08-10 21:00:00 NR 26.3135 121.650 main 122 122 __________P___ -1 26.3135 121.650 4 14 294
1931219N17131 1931 24 WP MM NOT_NAMED 1931-08-10 22:00:00 NR 26.4000 121.400 main 126 74 __________O___ -1 26.4000 121.400 4 14 291
1931219N17131 1931 24 WP MM NOT_NAMED 1931-08-11 00:00:00 NR 26.5640 120.908 main 74 9 __________P___ -1 26.5640 120.908 4 14 287
1931219N17131 1931 24 WP MM NOT_NAMED 1931-08-11 03:00:00 NR 26.7538 120.145 main 9 0 __________P___ -1 26.7538 120.145 4 14 283
1931219N17131 1931 24 WP MM NOT_NAMED 1931-08-11 06:00:00 NR 26.8874 119.362 main 0 0 __________P___ -1 26.8874 119.362 4 14 279
1931219N17131 1931 24 WP MM NOT_NAMED 1931-08-11 09:00:00 NR 26.9774 118.566 main 0 0 __________P___ -1 26.9774 118.566 4 14 277
1931219N17131 1931 24 WP MM NOT_NAMED 1931-08-11 10:00:00 NR 27.0000 118.300 main 0 0 __________O___ -1 27.0000 118.300 7 14 275
1931219N17131 1931 24 WP MM NOT_NAMED 1931-08-11 12:00:00 NR 27.0365 117.767 main 0 0 __________P___ -1 27.0365 117.767 7 14 274
1931219N17131 1931 24 WP MM NOT_NAMED 1931-08-11 15:00:00 NR 27.0728 116.967 main 0 0 __________P___ -1 27.0728 116.967 7 14 272
1931219N17131 1931 24 WP MM NOT_NAMED 1931-08-11 18:00:00 NR 27.0919 116.167 main 0 0 __________P___ -1 27.0919 116.167 7 14 271
1931219N17131 1931 24 WP MM NOT_NAMED 1931-08-11 21:00:00 NR 27.0992 115.367 main 0 0 __________P___ -1 27.0992 115.367 7 14 270
1931219N17131 1931 24 WP MM NOT_NAMED 1931-08-11 22:00:00 NR 27.1000 115.100 main 0 __________O___ -1 27.1000 115.100 7 14 270

Digital Typhoon Data and Search

About IBTrACS Database

This database is a web-friendly format of International Best Track Archive for Climate Stewardship (IBTrACS), a global best track data archive curated by NOAA dating back to 1842.

Updated: 2021-12-06